Terminal Aerodrome Forecast
Issued by NWS Binghamton, NY

Home | Current Version | Previous Version | Text Only | Print | Product List | Glossary On
Versions: 1 2 3 4 5 6 7 8 9 10 11 12 13 14 15 16 17 18 19 20 21 22 23 24
721
FTUS41 KBGM 102159 AAC
TAFBGM
TAF AMD
KBGM 102159Z 1022/1118 27010G18KT P6SM -SN SCT025 BKN035
      TEMPO 1022/1024 2SM -SN BKN019 OVC025
     FM110000 30008KT P6SM -SHSN OVC025
     FM111200 30012G18KT P6SM -SHSN OVC020=

USA.gov is the U.S. government's official web portal to all federal, state and local government web resources and services.